Time;durP1;ratioP1;P1;durP2;ratioP2;P2;SDS_P1;SDS_P2;PMS_P1;PMS_P2;Temp;Humidity;BMP_temperature;BMP_pressure;BME280_temperature;BME280_humidity;BME280_pressure;Samples;Min_cycle;Max_cycle;Signal;HPM_P1;HPM_P2
2021/05/05 00:00:13;;;;;;;3.25;2.50;;;7.30;54.60;;;;;;6246479;22;20459;-91
2021/05/05 00:02:41;;;;;;;4.05;2.42;;;7.30;54.80;;;;;;6247514;23;20100;-91
2021/05/05 00:05:07;;;;;;;5.15;3.00;;;7.30;54.80;;;;;;6252374;23;20015;-91
2021/05/05 00:07:33;;;;;;;4.72;3.03;;;7.20;54.90;;;;;;6257916;22;20012;-92
2021/05/05 00:09:59;;;;;;;3.47;2.65;;;7.20;55.00;;;;;;6257497;23;20004;-91
2021/05/05 00:12:24;;;;;;;3.08;2.33;;;7.20;55.10;;;;;;6253663;23;20011;-91
2021/05/05 00:14:50;;;;;;;5.60;2.80;;;7.20;55.10;;;;;;6229704;23;20076;-90
2021/05/05 00:17:16;;;;;;;3.38;2.60;;;7.20;55.20;;;;;;6254630;22;20030;-92
2021/05/05 00:19:41;;;;;;;3.83;2.83;;;7.20;55.40;;;;;;6261406;23;20007;-91
2021/05/05 00:22:08;;;;;;;4.18;2.83;;;7.20;55.40;;;;;;6232982;23;20004;-90
2021/05/05 00:24:33;;;;;;;2.67;2.40;;;7.10;55.40;;;;;;6263994;22;20359;-90
2021/05/05 00:26:59;;;;;;;4.40;2.97;;;7.10;55.40;;;;;;6265655;22;20000;-91
2021/05/05 00:29:25;;;;;;;6.78;2.72;;;7.10;55.70;;;;;;6250753;22;20016;-91
2021/05/05 00:31:50;;;;;;;4.63;2.80;;;7.10;55.60;;;;;;6247324;23;20095;-91
2021/05/05 00:34:16;;;;;;;3.13;2.17;;;7.10;55.50;;;;;;6221980;23;20039;-91
2021/05/05 00:36:42;;;;;;;5.40;3.08;;;7.20;55.70;;;;;;6246694;22;20050;-91
2021/05/05 00:39:07;;;;;;;3.50;2.35;;;7.10;55.80;;;;;;6246513;23;20039;-91
2021/05/05 00:41:33;;;;;;;4.00;3.05;;;7.10;55.80;;;;;;6246189;22;20011;-90
2021/05/05 00:43:59;;;;;;;3.17;2.78;;;7.10;55.90;;;;;;6246902;23;20008;-91
2021/05/05 00:46:25;;;;;;;2.60;2.28;;;7.10;56.00;;;;;;6246354;23;20012;-91
2021/05/05 00:48:51;;;;;;;3.47;2.35;;;7.10;56.00;;;;;;6247444;23;20004;-90
2021/05/05 00:51:17;;;;;;;3.58;2.60;;;7.10;56.00;;;;;;6253543;23;20010;-91
2021/05/05 00:53:43;;;;;;;3.42;2.42;;;7.10;56.10;;;;;;6259115;22;20374;-91
2021/05/05 00:56:09;;;;;;;3.30;2.90;;;7.10;56.10;;;;;;6249339;23;20020;-90
2021/05/05 00:58:35;;;;;;;3.30;2.35;;;7.10;56.10;;;;;;6246666;22;20020;-91
2021/05/05 01:01:02;;;;;;;2.60;2.40;;;7.10;56.10;;;;;;6246403;23;20010;-91
2021/05/05 01:03:28;;;;;;;3.10;2.80;;;7.10;56.20;;;;;;6246184;22;20043;-91
2021/05/05 01:05:54;;;;;;;4.15;2.88;;;7.10;56.20;;;;;;6247740;22;20316;-92
2021/05/05 01:08:22;;;;;;;4.15;2.50;;;7.10;56.20;;;;;;6246331;23;20009;-91
2021/05/05 01:10:49;;;;;;;4.75;2.60;;;7.10;56.30;;;;;;6246576;22;20004;-91
2021/05/05 01:13:16;;;;;;;4.05;2.15;;;7.10;56.30;;;;;;6246516;22;20016;-92
2021/05/05 01:15:42;;;;;;;2.13;1.95;;;7.10;56.40;;;;;;6245585;22;20024;-91
2021/05/05 01:18:09;;;;;;;3.85;2.78;;;7.10;56.50;;;;;;6245981;22;20009;-92
2021/05/05 01:20:35;;;;;;;4.30;2.70;;;7.10;56.60;;;;;;6246063;22;20016;-91
2021/05/05 01:23:01;;;;;;;4.40;3.00;;;7.10;56.50;;;;;;6246362;23;20019;-91
2021/05/05 01:25:27;;;;;;;2.95;2.60;;;7.10;56.60;;;;;;6246508;23;20324;-92
2021/05/05 01:27:53;;;;;;;5.90;3.08;;;7.10;56.70;;;;;;6249306;23;20071;-91
2021/05/05 01:30:21;;;;;;;3.38;2.75;;;7.10;56.80;;;;;;6247161;23;20375;-91
2021/05/05 01:32:47;;;;;;;4.25;2.38;;;7.00;56.80;;;;;;6246243;23;20004;-90
2021/05/05 01:35:14;;;;;;;4.18;2.95;;;7.00;56.80;;;;;;6247568;22;19996;-90
2021/05/05 01:37:41;;;;;;;3.85;2.90;;;7.00;56.90;;;;;;6246089;23;20008;-91
2021/05/05 01:40:08;;;;;;;3.55;2.67;;;7.00;56.90;;;;;;6245806;22;20297;-91
2021/05/05 01:42:34;;;;;;;4.32;2.80;;;7.00;57.00;;;;;;6247217;22;20004;-91
2021/05/05 01:45:00;;;;;;;4.10;3.03;;;7.00;57.00;;;;;;6247735;22;20060;-90
2021/05/05 01:47:26;;;;;;;4.80;3.00;;;7.00;57.00;;;;;;6248026;22;20007;-90
2021/05/05 01:49:51;;;;;;;4.03;3.20;;;6.90;57.00;;;;;;6248864;23;20028;-91
2021/05/05 01:52:18;;;;;;;3.45;2.47;;;6.90;57.10;;;;;;6247869;22;20365;-92
2021/05/05 01:54:45;;;;;;;4.38;3.03;;;6.90;57.20;;;;;;6247741;22;20011;-90
2021/05/05 01:57:37;;;;;;;4.22;2.90;;;6.90;57.40;;;;;;6248338;23;20103;-91
2021/05/05 02:00:12;;;;;;;4.90;3.17;;;6.80;57.50;;;;;;6232203;23;20024;-90
2021/05/05 02:02:38;;;;;;;4.53;2.97;;;6.80;57.50;;;;;;6247882;23;20054;-91
2021/05/05 02:05:05;;;;;;;5.25;2.90;;;6.80;57.70;;;;;;6247765;23;20012;-92
2021/05/05 02:07:31;;;;;;;5.47;3.22;;;6.80;57.80;;;;;;6248550;22;20050;-92
2021/05/05 02:09:57;;;;;;;3.95;3.17;;;6.80;57.90;;;;;;6247685;23;20340;-91
2021/05/05 02:12:23;;;;;;;3.28;2.97;;;6.80;58.10;;;;;;6247806;23;20000;-89
2021/05/05 02:14:50;;;;;;;4.50;3.53;;;6.80;58.40;;;;;;6248624;22;20000;-91
2021/05/05 02:17:17;;;;;;;3.40;3.10;;;6.80;58.40;;;;;;6247153;22;20008;-91
2021/05/05 02:19:43;;;;;;;3.88;3.13;;;6.90;58.60;;;;;;6247552;23;20004;-91
2021/05/05 02:22:09;;;;;;;3.40;3.05;;;6.90;58.80;;;;;;6249100;23;20000;-90
2021/05/05 02:24:34;;;;;;;5.15;3.70;;;6.90;58.90;;;;;;6247585;22;20040;-92
2021/05/05 02:27:00;;;;;;;4.80;3.58;;;7.00;58.90;;;;;;6247667;23;20074;-91
2021/05/05 02:29:26;;;;;;;6.70;3.80;;;7.00;59.10;;;;;;6222318;23;20015;-90
2021/05/05 02:31:53;;;;;;;5.05;3.53;;;7.00;59.00;;;;;;6247446;23;20023;-91
2021/05/05 02:34:19;;;;;;;5.75;3.90;;;7.10;59.10;;;;;;6247431;23;20007;-91
2021/05/05 02:36:45;;;;;;;4.22;3.35;;;7.10;59.20;;;;;;6247211;23;20004;-91
2021/05/05 02:39:11;;;;;;;4.78;3.58;;;7.10;59.30;;;;;;6247520;22;20028;-90
2021/05/05 02:41:39;;;;;;;5.00;3.88;;;7.20;59.60;;;;;;6247748;23;20450;-91
2021/05/05 02:44:06;;;;;;;4.53;3.75;;;7.20;59.60;;;;;;6247368;22;20463;-91
2021/05/05 02:46:32;;;;;;;4.18;3.35;;;7.30;59.60;;;;;;6246855;22;20012;-91
2021/05/05 02:48:57;;;;;;;4.72;3.35;;;7.30;59.60;;;;;;6246839;23;20010;-91
2021/05/05 02:51:23;;;;;;;6.43;4.30;;;7.40;59.90;;;;;;6250437;23;20091;-91
2021/05/05 02:53:49;;;;;;;4.43;3.35;;;7.40;59.90;;;;;;6251105;23;20000;-91
2021/05/05 02:56:15;;;;;;;4.80;3.88;;;7.40;59.80;;;;;;6248481;22;20023;-90
2021/05/05 02:58:40;;;;;;;5.57;4.15;;;7.50;60.00;;;;;;6246923;23;20020;-90
2021/05/05 03:01:06;;;;;;;8.98;3.90;;;7.50;60.00;;;;;;6247055;22;20012;-92
2021/05/05 03:03:31;;;;;;;5.57;3.63;;;7.60;60.00;;;;;;6247147;22;20004;-91
2021/05/05 03:05:57;;;;;;;5.25;3.75;;;7.60;60.40;;;;;;6248563;23;19999;-91
2021/05/05 03:08:23;;;;;;;5.90;3.97;;;7.70;60.10;;;;;;6247149;23;20011;-91
2021/05/05 03:10:49;;;;;;;4.43;3.80;;;7.70;60.20;;;;;;6247384;22;20046;-91
2021/05/05 03:13:14;;;;;;;4.82;3.97;;;7.80;60.20;;;;;;6247137;22;20339;-91
2021/05/05 03:15:40;;;;;;;5.80;4.40;;;7.80;60.20;;;;;;6247002;23;20000;-92
2021/05/05 03:18:06;;;;;;;5.07;4.38;;;7.80;60.10;;;;;;6246876;22;20474;-91
2021/05/05 03:20:32;;;;;;;8.48;4.88;;;7.80;60.20;;;;;;6248381;22;20004;-91
2021/05/05 03:22:58;;;;;;;5.97;4.13;;;7.80;60.30;;;;;;6247048;22;20011;-92
2021/05/05 03:25:24;;;;;;;7.57;4.57;;;7.80;60.40;;;;;;6247098;23;20000;-91
2021/05/05 03:27:49;;;;;;;5.85;4.43;;;7.90;60.50;;;;;;6247011;22;20004;-91
2021/05/05 03:30:16;;;;;;;6.75;5.20;;;7.90;60.50;;;;;;6246501;23;20083;-92
2021/05/05 03:32:41;;;;;;;9.30;5.07;;;7.90;60.60;;;;;;6247181;23;20002;-92
2021/05/05 03:35:08;;;;;;;10.32;4.47;;;8.00;60.80;;;;;;6246943;22;20086;-91
2021/05/05 03:37:34;;;;;;;7.40;4.63;;;8.00;60.80;;;;;;6246980;23;20004;-91
2021/05/05 03:40:01;;;;;;;6.93;4.70;;;8.10;60.90;;;;;;6248341;22;20000;-93
2021/05/05 03:42:27;;;;;;;6.28;5.28;;;8.20;61.00;;;;;;6246736;23;20098;-91
2021/05/05 03:44:52;;;;;;;6.32;4.28;;;8.30;61.10;;;;;;6246484;23;20036;-92
2021/05/05 03:47:18;;;;;;;7.90;5.55;;;8.30;61.10;;;;;;6247101;22;20005;-93
2021/05/05 03:49:44;;;;;;;5.45;4.65;;;8.40;61.20;;;;;;6246802;22;20008;-92
2021/05/05 03:52:09;;;;;;;4.95;4.43;;;8.50;61.50;;;;;;6246597;23;20000;-93
2021/05/05 03:54:35;;;;;;;5.03;4.38;;;8.60;61.50;;;;;;6246904;22;20087;-92
2021/05/05 03:57:01;;;;;;;5.45;4.47;;;8.70;61.40;;;;;;6246550;23;20042;-91
2021/05/05 03:59:27;;;;;;;4.90;4.18;;;8.80;61.40;;;;;;6246207;22;20026;-91
2021/05/05 04:01:52;;;;;;;9.80;4.85;;;8.90;61.60;;;;;;6246522;23;20435;-91
2021/05/05 04:04:18;;;;;;;6.05;4.22;;;9.00;61.70;;;;;;6249669;22;20023;-93
2021/05/05 04:06:44;;;;;;;5.90;4.55;;;9.00;61.60;;;;;;6249073;22;20408;-91
2021/05/05 04:09:11;;;;;;;6.28;4.18;;;9.20;61.60;;;;;;6247316;23;20151;-92
2021/05/05 04:11:37;;;;;;;6.28;4.38;;;9.30;61.70;;;;;;6247074;23;19996;-92
2021/05/05 04:14:03;;;;;;;6.75;4.50;;;9.30;61.70;;;;;;6246748;22;20007;-93
2021/05/05 04:16:29;;;;;;;6.05;4.45;;;9.50;61.70;;;;;;6247196;22;20007;-92
2021/05/05 04:18:55;;;;;;;4.35;3.85;;;9.60;61.90;;;;;;6246319;22;20009;-92
2021/05/05 04:21:23;;;;;;;6.35;4.68;;;9.70;62.00;;;;;;6247545;22;20000;-92
2021/05/05 04:23:49;;;;;;;4.97;4.25;;;9.80;61.90;;;;;;6248199;22;20005;-93
2021/05/05 04:26:15;;;;;;;4.47;4.07;;;9.90;62.10;;;;;;6247174;22;20327;-93
2021/05/05 04:28:41;;;;;;;7.50;5.57;;;10.00;62.20;;;;;;6246667;22;20011;-92
2021/05/05 04:31:07;;;;;;;8.30;5.53;;;10.10;62.10;;;;;;6246268;22;20004;-92
2021/05/05 04:33:34;;;;;;;8.82;5.93;;;10.20;62.10;;;;;;6249994;22;19993;-92
2021/05/05 04:35:59;;;;;;;6.45;5.45;;;10.40;62.30;;;;;;6247462;22;20003;-93
2021/05/05 04:38:25;;;;;;;8.55;6.15;;;10.50;62.30;;;;;;6246406;22;20008;-92
2021/05/05 04:40:51;;;;;;;8.52;5.85;;;10.60;62.30;;;;;;6253281;22;20363;-93
2021/05/05 04:43:17;;;;;;;6.40;5.18;;;10.80;62.30;;;;;;6254620;22;20008;-92
2021/05/05 04:45:43;;;;;;;9.75;5.05;;;10.90;62.20;;;;;;6250491;22;20139;-93
2021/05/05 04:48:09;;;;;;;8.05;5.78;;;11.10;62.40;;;;;;6248526;22;20004;-93
2021/05/05 04:50:35;;;;;;;10.32;5.22;;;11.20;62.70;;;;;;6248944;22;20015;-92
2021/05/05 04:53:01;;;;;;;8.02;4.85;;;11.40;62.90;;;;;;6246921;22;20004;-92
2021/05/05 04:55:27;;;;;;;10.32;4.97;;;11.50;62.90;;;;;;6250280;22;20420;-93
2021/05/05 04:57:52;;;;;;;7.43;4.85;;;11.60;63.10;;;;;;6251836;23;20075;-93
2021/05/05 05:00:18;;;;;;;4.85;4.18;;;11.70;63.20;;;;;;6247097;22;20027;-93
2021/05/05 05:02:44;;;;;;;4.32;3.58;;;11.80;63.30;;;;;;6247403;22;20075;-92
2021/05/05 05:05:11;;;;;;;4.43;3.35;;;11.90;63.10;;;;;;6248365;23;19997;-93
2021/05/05 05:07:36;;;;;;;4.72;4.07;;;12.10;63.30;;;;;;6250116;22;20048;-94
2021/05/05 05:10:06;;;;;;;5.28;3.67;;;12.20;63.30;;;;;;6254070;22;20044;-93
2021/05/05 05:12:31;;;;;;;5.82;3.88;;;12.30;63.10;;;;;;6249305;22;20071;-93
2021/05/05 05:14:57;;;;;;;4.82;3.63;;;12.50;63.10;;;;;;6247261;22;20062;-93
2021/05/05 05:17:23;;;;;;;5.70;3.72;;;12.70;63.20;;;;;;6248583;22;20036;-93
2021/05/05 05:19:49;;;;;;;5.40;3.00;;;12.90;63.20;;;;;;6247046;23;20015;-93
2021/05/05 05:22:15;;;;;;;3.58;2.90;;;13.10;63.00;;;;;;6246182;22;20008;-92
2021/05/05 05:24:41;;;;;;;3.40;2.85;;;13.40;62.70;;;;;;6248848;22;20003;-92
2021/05/05 05:27:07;;;;;;;5.20;3.15;;;13.70;62.10;;;;;;6248732;22;19996;-92
2021/05/05 05:29:33;;;;;;;3.17;2.72;;;13.90;61.40;;;;;;6248357;22;20008;-93
2021/05/05 05:31:58;;;;;;;3.85;3.10;;;14.20;60.90;;;;;;6247588;22;20004;-92
2021/05/05 05:34:24;;;;;;;5.05;3.10;;;14.30;60.20;;;;;;6247354;22;20391;-93
2021/05/05 05:36:50;;;;;;;4.35;3.13;;;14.40;59.80;;;;;;6247973;22;20060;-92
2021/05/05 05:39:15;;;;;;;3.38;3.08;;;14.50;59.50;;;;;;6247018;22;20008;-93
2021/05/05 05:41:41;;;;;;;3.80;2.42;;;14.60;59.20;;;;;;6249832;22;20866;-92
2021/05/05 05:44:07;;;;;;;3.88;3.13;;;14.70;58.40;;;;;;6248014;22;20004;-94
2021/05/05 05:46:38;;;;;;;4.22;3.28;;;14.70;58.00;;;;;;6249439;22;19996;-91
2021/05/05 05:49:06;;;;;;;3.17;2.88;;;14.70;57.80;;;;;;6248933;23;20005;-92
2021/05/05 05:51:32;;;;;;;5.25;3.00;;;14.70;57.60;;;;;;6251148;22;20012;-91
2021/05/05 05:53:58;;;;;;;3.65;3.08;;;14.70;57.50;;;;;;6248631;22;20439;-92
2021/05/05 05:56:24;;;;;;;4.45;3.40;;;14.80;57.40;;;;;;6248001;22;20016;-92
2021/05/05 05:58:50;;;;;;;4.28;3.47;;;14.80;57.30;;;;;;6250146;22;20020;-91
2021/05/05 06:01:16;;;;;;;5.97;4.00;;;14.90;57.00;;;;;;6250608;22;20000;-92
2021/05/05 06:03:42;;;;;;;5.10;3.60;;;14.90;57.00;;;;;;6248787;22;20038;-91
2021/05/05 06:06:08;;;;;;;3.15;2.85;;;14.90;57.00;;;;;;6250431;22;20026;-92
2021/05/05 06:08:36;;;;;;;5.75;3.05;;;15.00;57.00;;;;;;6253842;22;20004;-91
2021/05/05 06:11:02;;;;;;;3.15;2.85;;;15.10;57.50;;;;;;6251346;22;20000;-92
2021/05/05 06:13:27;;;;;;;8.50;4.05;;;15.20;56.60;;;;;;6251446;22;20004;-92
2021/05/05 06:15:53;;;;;;;3.55;3.05;;;15.30;56.40;;;;;;6252422;22;20018;-93
2021/05/05 06:18:19;;;;;;;4.45;3.25;;;15.20;56.50;;;;;;6250695;22;20010;-92
2021/05/05 06:20:45;;;;;;;2.67;2.47;;;15.30;56.40;;;;;;6250458;22;20454;-91
2021/05/05 06:23:11;;;;;;;4.05;3.65;;;15.30;56.30;;;;;;6248180;22;20010;-91
2021/05/05 06:25:37;;;;;;;3.28;2.65;;;15.40;56.40;;;;;;6249099;22;20008;-93
2021/05/05 06:28:03;;;;;;;4.05;3.08;;;15.30;56.40;;;;;;6248455;22;20000;-92
2021/05/05 06:30:29;;;;;;;5.03;2.97;;;15.40;56.40;;;;;;6249699;22;20027;-91
2021/05/05 06:32:54;;;;;;;5.57;2.65;;;15.50;56.60;;;;;;6250130;22;20065;-92
2021/05/05 06:35:21;;;;;;;3.63;3.33;;;15.50;56.40;;;;;;6248210;22;20004;-93
2021/05/05 06:37:46;;;;;;;4.80;3.47;;;15.60;56.30;;;;;;6250326;22;19999;-91
2021/05/05 06:40:14;;;;;;;4.43;3.80;;;15.70;56.40;;;;;;6249275;22;20004;-96
2021/05/05 06:42:40;;;;;;;4.90;3.03;;;15.80;56.10;;;;;;6247502;22;20008;-94
2021/05/05 06:45:06;;;;;;;4.43;2.60;;;15.90;56.00;;;;;;6249832;22;20031;-95
2021/05/05 06:47:32;;;;;;;3.45;2.60;;;16.00;55.80;;;;;;6248831;22;20059;-92
2021/05/05 06:49:58;;;;;;;3.60;2.92;;;16.10;55.70;;;;;;6247812;22;20082;-92
2021/05/05 06:52:24;;;;;;;3.50;2.78;;;16.20;55.60;;;;;;6247542;22;20109;-94
2021/05/05 06:54:50;;;;;;;3.47;2.90;;;16.20;55.50;;;;;;6246878;22;20004;-94
2021/05/05 06:57:15;;;;;;;3.70;2.92;;;16.30;55.40;;;;;;6250113;22;20012;-92
2021/05/05 06:59:41;;;;;;;3.00;2.63;;;16.30;55.40;;;;;;6248059;22;20032;-91
2021/05/05 07:02:10;;;;;;;3.08;2.83;;;16.40;55.40;;;;;;6250564;22;20004;-93
2021/05/05 07:04:41;;;;;;;3.08;2.38;;;16.50;55.20;;;;;;6250246;22;20379;-93
2021/05/05 07:07:06;;;;;;;4.28;3.20;;;16.70;55.00;;;;;;6250015;23;20003;-94
2021/05/05 07:09:38;;;;;;;6.13;3.00;;;16.70;54.70;;;;;;6224003;23;20034;-92
2021/05/05 07:12:05;;;;;;;3.80;2.67;;;16.80;54.60;;;;;;6247149;23;20050;-92
2021/05/05 07:14:34;;;;;;;3.00;2.55;;;16.80;54.70;;;;;;6247083;22;20327;-92
2021/05/05 07:17:04;;;;;;;6.13;2.35;;;16.90;54.70;;;;;;6248292;22;20008;-94
2021/05/05 07:19:33;;;;;;;2.55;2.17;;;17.00;54.40;;;;;;6248302;22;20016;-93
2021/05/05 07:21:58;;;;;;;3.45;2.53;;;17.10;54.20;;;;;;6250596;22;20083;-92
2021/05/05 07:24:27;;;;;;;3.72;2.83;;;17.20;54.10;;;;;;6249020;22;20015;-94
2021/05/05 07:26:53;;;;;;;4.35;2.50;;;17.30;53.90;;;;;;6248323;22;20396;-93
2021/05/05 07:29:20;;;;;;;3.45;2.30;;;17.40;53.80;;;;;;6245153;22;20000;-94
2021/05/05 07:31:46;;;;;;;5.63;2.20;;;17.40;53.70;;;;;;6249517;22;20000;-93
2021/05/05 07:34:14;;;;;;;3.67;2.10;;;17.50;53.60;;;;;;6223964;23;20005;-93
2021/05/05 07:36:50;;;;;;;2.40;2.08;;;17.60;53.40;;;;;;6251535;22;20012;-94
2021/05/05 07:45:07;;;;;;;2.53;2.22;;;17.70;52.90;;;;;;6256547;23;20474;-94
2021/05/05 07:47:35;;;;;;;6.88;2.80;;;17.80;52.70;;;;;;6255226;22;20008;-93
2021/05/05 07:50:03;;;;;;;4.30;2.83;;;17.90;52.50;;;;;;6251219;23;20004;-94
2021/05/05 07:52:30;;;;;;;2.60;2.35;;;18.00;52.30;;;;;;6227915;23;20373;-93
2021/05/05 07:58:34;;;;;;;2.80;2.25;;;18.20;51.80;;;;;;6255928;22;20089;-95
2021/05/05 08:01:38;;;;;;;3.47;2.00;;;18.30;51.30;;;;;;6226383;23;20016;-93
2021/05/05 08:04:05;;;;;;;2.63;2.30;;;18.40;50.90;;;;;;6233693;23;20011;-93
2021/05/05 08:10:24;;;;;;;4.95;2.22;;;18.60;50.20;;;;;;6198292;23;20013;-94
2021/05/05 08:12:54;;;;;;;2.47;2.10;;;18.70;50.00;;;;;;6190480;23;20456;-94
2021/05/05 08:15:27;;;;;;;3.10;2.30;;;18.80;49.90;;;;;;6252631;23;20000;-91
2021/05/05 08:17:53;;;;;;;3.30;2.65;;;19.00;49.80;;;;;;6255462;22;20004;-94
2021/05/05 08:20:20;;;;;;;3.00;2.13;;;19.20;49.50;;;;;;6230703;23;20118;-92
2021/05/05 08:22:48;;;;;;;4.72;2.22;;;19.40;49.30;;;;;;6231536;23;20034;-94
2021/05/05 08:25:13;;;;;;;3.38;2.63;;;19.50;48.80;;;;;;6226777;23;20366;-96
2021/05/05 08:27:39;;;;;;;5.78;2.63;;;19.70;48.50;;;;;;6225729;23;20024;-92
2021/05/05 08:30:08;;;;;;;3.40;2.47;;;19.80;47.80;;;;;;6223858;23;20339;-93
2021/05/05 08:32:34;;;;;;;3.40;2.15;;;19.80;47.80;;;;;;6221387;23;20416;-90
2021/05/05 08:35:00;;;;;;;4.70;2.15;;;19.90;47.50;;;;;;6249814;22;20454;-95
2021/05/05 08:37:28;;;;;;;8.10;2.13;;;20.00;47.20;;;;;;6222551;23;20001;-92
2021/05/05 08:39:54;;;;;;;3.58;2.22;;;20.20;46.90;;;;;;6224643;23;20093;-93
2021/05/05 08:42:22;;;;;;;5.22;2.40;;;20.30;46.90;;;;;;6241268;23;19992;-93
2021/05/05 08:44:52;;;;;;;4.85;2.45;;;20.40;46.70;;;;;;6266543;22;20004;-94
2021/05/05 08:47:18;;;;;;;2.50;2.15;;;20.50;46.10;;;;;;6224995;23;20297;-94
2021/05/05 08:49:46;;;;;;;6.50;2.60;;;20.50;45.90;;;;;;6223575;23;20008;-94
2021/05/05 08:52:12;;;;;;;7.10;2.50;;;20.50;46.00;;;;;;6225781;23;20008;-93
2021/05/05 08:54:57;;;;;;;3.90;2.45;;;20.50;45.60;;;;;;6249568;23;20008;-94
2021/05/05 08:57:22;;;;;;;2.50;1.80;;;20.50;45.90;;;;;;6226188;23;20020;-92
2021/05/05 08:59:49;;;;;;;2.10;1.90;;;20.60;46.10;;;;;;6251476;22;20012;-94
2021/05/05 09:02:14;;;;;;;2.50;2.30;;;20.80;46.00;;;;;;6249694;22;20051;-95
2021/05/05 09:04:53;;;;;;;4.50;2.30;;;21.00;45.40;;;;;;6221867;23;20093;-94
2021/05/05 09:07:32;;;;;;;6.38;2.85;;;21.10;44.60;;;;;;6228032;23;20076;-95
2021/05/05 09:10:24;;;;;;;4.60;2.38;;;21.10;43.70;;;;;;6252486;23;20057;-92
2021/05/05 09:12:55;;;;;;;5.35;2.22;;;21.10;44.10;;;;;;6228316;22;20096;-94
2021/05/05 09:15:24;;;;;;;2.70;2.20;;;21.20;44.40;;;;;;6224796;23;20004;-92
2021/05/05 09:18:00;;;;;;;5.07;2.05;;;21.20;44.20;;;;;;6199474;23;20009;-94
2021/05/05 09:20:41;;;;;;;5.65;2.40;;;21.30;44.20;;;;;;6251515;23;20020;-94
2021/05/05 09:23:07;;;;;;;3.67;2.17;;;21.30;44.00;;;;;;6250130;22;20034;-93
2021/05/05 09:25:35;;;;;;;4.70;1.92;;;21.20;43.80;;;;;;6221191;23;20439;-93
2021/05/05 09:28:26;;;;;;;4.25;2.00;;;21.10;44.00;;;;;;6248970;22;20010;-94
2021/05/05 09:31:09;;;;;;;2.75;2.08;;;21.00;43.80;;;;;;6248643;23;20034;-93
2021/05/05 09:33:36;;;;;;;3.05;2.15;;;20.90;44.20;;;;;;6251788;23;20000;-96
2021/05/05 09:36:06;;;;;;;5.10;2.30;;;20.80;44.30;;;;;;6224255;23;20366;-92
2021/05/05 09:38:39;;;;;;;3.20;2.00;;;20.80;44.10;;;;;;6201360;23;20036;-93
2021/05/05 09:41:06;;;;;;;2.65;2.38;;;20.70;43.70;;;;;;6228521;23;20087;-94
2021/05/05 09:43:37;;;;;;;2.47;2.28;;;20.70;44.00;;;;;;6250951;22;20012;-93
2021/05/05 09:46:27;;;;;;;2.50;2.20;;;20.70;44.40;;;;;;6218885;23;20007;-95
2021/05/05 09:49:32;;;;;;;2.58;2.38;;;20.70;44.60;;;;;;6226757;23;20004;-92
2021/05/05 09:52:09;;;;;;;2.33;2.10;;;20.90;44.30;;;;;;6227641;23;20011;-96
2021/05/05 09:54:41;;;;;;;8.52;3.08;;;21.20;44.20;;;;;;6226294;23;20498;-92
2021/05/05 09:57:25;;;;;;;2.88;2.15;;;21.40;43.60;;;;;;6249227;22;20012;-91
2021/05/05 09:59:56;;;;;;;7.60;2.90;;;21.50;42.00;;;;;;6249926;23;20004;-93
2021/05/05 10:02:23;;;;;;;7.35;2.88;;;21.60;42.40;;;;;;6227040;23;20004;-94
2021/05/05 10:05:07;;;;;;;3.08;1.83;;;21.70;42.50;;;;;;6225351;23;20094;-93
2021/05/05 10:07:56;;;;;;;2.33;2.13;;;21.70;41.70;;;;;;6223676;23;20008;-92
2021/05/05 10:10:33;;;;;;;5.85;2.58;;;21.70;42.10;;;;;;6253929;23;20012;-93
2021/05/05 10:13:08;;;;;;;6.45;2.78;;;21.70;42.00;;;;;;6223907;23;20007;-93
2021/05/05 10:15:38;;;;;;;3.85;2.58;;;21.70;41.90;;;;;;6221581;23;20397;-94
2021/05/05 10:18:08;;;;;;;2.33;2.00;;;21.70;41.80;;;;;;6223244;23;20447;-92
2021/05/05 10:20:35;;;;;;;2.35;2.10;;;21.70;42.10;;;;;;6222098;23;20032;-92
2021/05/05 10:23:03;;;;;;;2.53;2.13;;;21.70;42.40;;;;;;6222680;23;20035;-93
2021/05/05 10:25:31;;;;;;;2.45;1.77;;;21.80;42.30;;;;;;6225726;23;20164;-94
2021/05/05 10:27:58;;;;;;;2.75;2.30;;;21.90;42.30;;;;;;6222124;23;20012;-93
2021/05/05 10:30:33;;;;;;;3.28;2.42;;;22.00;42.10;;;;;;6253892;22;20008;-92
2021/05/05 10:33:07;;;;;;;3.65;2.55;;;22.10;42.20;;;;;;6262332;23;19996;-95
2021/05/05 10:35:34;;;;;;;6.47;2.65;;;22.20;42.00;;;;;;6226511;23;20309;-93
2021/05/05 10:38:01;;;;;;;2.10;1.85;;;22.30;41.50;;;;;;6224739;23;20008;-94
2021/05/05 10:40:33;;;;;;;6.25;2.45;;;22.30;41.20;;;;;;6251146;22;20015;-93
2021/05/05 10:43:04;;;;;;;3.57;1.93;;;22.30;41.20;;;;;;6222791;23;20031;-93
2021/05/05 10:45:44;;;;;;;4.30;2.30;;;22.30;41.40;;;;;;6249287;23;20031;-91
2021/05/05 10:48:16;;;;;;;2.72;2.30;;;22.50;41.60;;;;;;6223061;23;20320;-93
2021/05/05 10:51:06;;;;;;;3.45;2.20;;;22.70;41.40;;;;;;6249744;23;20003;-92
2021/05/05 10:53:53;;;;;;;3.20;2.00;;;22.70;41.10;;;;;;6203756;23;20023;-96
2021/05/05 10:56:30;;;;;;;5.80;2.65;;;22.80;40.50;;;;;;6224637;22;20015;-94
2021/05/05 10:59:00;;;;;;;4.13;2.40;;;22.90;41.10;;;;;;6248126;22;20016;-93
2021/05/05 11:01:47;;;;;;;3.20;2.03;;;23.00;40.30;;;;;;6222172;23;20081;-92
2021/05/05 11:04:15;;;;;;;7.60;2.70;;;23.10;40.10;;;;;;6247634;23;20080;-92
2021/05/05 11:06:55;;;;;;;2.58;2.10;;;23.00;40.40;;;;;;6196456;23;20004;-93
2021/05/05 11:09:24;;;;;;;9.02;2.95;;;23.00;39.90;;;;;;6221841;23;20008;-92
2021/05/05 11:12:06;;;;;;;6.20;2.30;;;23.00;40.20;;;;;;6223259;23;20328;-95
2021/05/05 11:14:36;;;;;;;4.65;2.42;;;22.90;39.90;;;;;;6224793;23;20454;-93
2021/05/05 11:17:11;;;;;;;2.60;2.22;;;22.80;40.30;;;;;;6224872;23;20031;-93
2021/05/05 11:19:42;;;;;;;2.85;1.90;;;22.90;40.60;;;;;;6230317;23;20016;-94
2021/05/05 11:25:31;;;;;;;2.35;2.00;;;23.00;39.80;;;;;;6262188;23;20019;-94
2021/05/05 11:27:59;;;;;;;3.50;1.88;;;23.00;40.00;;;;;;6262975;22;20012;-94
2021/05/05 11:30:39;;;;;;;2.70;2.15;;;23.00;40.00;;;;;;6202564;23;20012;-94
2021/05/05 11:33:10;;;;;;;2.28;2.08;;;23.10;39.80;;;;;;6231119;23;20062;-94
2021/05/05 11:35:37;;;;;;;2.30;2.10;;;23.00;39.90;;;;;;6227272;23;20273;-95
2021/05/05 11:38:18;;;;;;;5.28;2.08;;;23.00;39.50;;;;;;6229573;23;20027;-93
2021/05/05 11:40:59;;;;;;;4.35;2.03;;;23.00;39.50;;;;;;6229758;23;20292;-95
2021/05/05 11:43:36;;;;;;;7.15;2.47;;;23.00;39.40;;;;;;6233423;23;20078;-93
2021/05/05 11:46:03;;;;;;;2.78;2.38;;;23.10;39.80;;;;;;6239970;23;20443;-95
2021/05/05 11:48:37;;;;;;;3.60;2.20;;;23.20;39.50;;;;;;6226562;22;20027;-94
2021/05/05 11:51:24;;;;;;;3.30;2.13;;;23.30;38.50;;;;;;6294310;22;20007;-93
2021/05/05 11:53:53;;;;;;;3.10;2.30;;;23.20;38.00;;;;;;6269398;22;20049;-93
2021/05/05 11:56:40;;;;;;;3.42;2.22;;;23.10;38.80;;;;;;6267717;22;20091;-94
2021/05/05 11:59:10;;;;;;;5.40;2.33;;;22.90;39.20;;;;;;6271478;22;20026;-94
2021/05/05 12:01:40;;;;;;;4.80;2.70;;;22.90;39.80;;;;;;6244754;22;20063;-94
2021/05/05 12:04:26;;;;;;;2.30;2.10;;;23.00;39.90;;;;;;6297521;22;19996;-93
2021/05/05 12:06:58;;;;;;;2.60;2.40;;;23.10;39.50;;;;;;6295731;22;20037;-92
2021/05/05 12:09:30;;;;;;;2.97;2.30;;;23.20;39.80;;;;;;6282977;22;20082;-95
2021/05/05 12:12:20;;;;;;;2.88;2.03;;;23.20;39.30;;;;;;6258066;22;20004;-93
2021/05/05 12:14:53;;;;;;;3.22;2.05;;;23.00;39.00;;;;;;6285185;22;19996;-92
2021/05/05 12:17:32;;;;;;;;;;;22.80;39.50;;;;;;6255034;22;20398;-93
2021/05/05 12:20:01;;;;;;;3.20;1.90;;;22.60;39.70;;;;;;6225628;23;19973;-95
2021/05/05 12:22:29;;;;;;;2.97;2.20;;;22.40;40.10;;;;;;6224267;23;20004;-94
2021/05/05 12:25:20;;;;;;;2.83;2.10;;;22.30;40.40;;;;;;6224592;23;20004;-93
2021/05/05 12:28:13;;;;;;;3.17;2.20;;;22.40;40.50;;;;;;6224857;23;20034;-94
2021/05/05 12:30:54;;;;;;;2.35;2.05;;;22.50;40.50;;;;;;6231045;23;20000;-93
2021/05/05 12:33:30;;;;;;;2.13;1.90;;;22.70;40.50;;;;;;6241803;23;20016;-93
2021/05/05 12:36:00;;;;;;;2.35;2.00;;;22.80;39.90;;;;;;6267479;23;20056;-93
2021/05/05 12:38:31;;;;;;;4.00;2.22;;;22.70;39.60;;;;;;6223530;23;20008;-94
2021/05/05 12:41:03;;;;;;;9.27;2.67;;;22.60;39.60;;;;;;6220156;23;20036;-94
2021/05/05 12:43:30;;;;;;;4.45;2.55;;;22.40;39.40;;;;;;6220769;23;20059;-94
2021/05/05 12:45:57;;;;;;;4.50;2.70;;;22.20;39.60;;;;;;6220321;23;20081;-94
2021/05/05 12:48:26;;;;;;;7.55;2.10;;;22.00;39.90;;;;;;6196687;23;20024;-92
2021/05/05 12:50:53;;;;;;;4.28;2.17;;;21.90;40.20;;;;;;6225092;23;20015;-91
2021/05/05 12:53:19;;;;;;;3.45;2.05;;;21.80;40.60;;;;;;6224260;23;20083;-93
2021/05/05 12:55:58;;;;;;;13.45;2.47;;;21.80;40.70;;;;;;6224226;23;20004;-94
2021/05/05 12:58:40;;;;;;;2.15;1.95;;;21.80;40.60;;;;;;6224062;23;20485;-94
2021/05/05 13:01:14;;;;;;;8.23;2.00;;;21.90;40.40;;;;;;6198633;23;20008;-93
2021/05/05 13:03:43;;;;;;;1.85;1.70;;;22.10;40.60;;;;;;6222653;23;20462;-93
2021/05/05 13:06:12;;;;;;;2.10;1.90;;;22.40;40.80;;;;;;6197812;23;20004;-93
2021/05/05 13:08:48;;;;;;;2.60;2.40;;;22.80;40.60;;;;;;6225518;23;20012;-93
2021/05/05 13:11:41;;;;;;;5.20;2.15;;;23.20;40.00;;;;;;6227941;23;20062;-94
2021/05/05 13:14:24;;;;;;;3.47;2.20;;;23.60;38.80;;;;;;6222117;23;20058;-93
2021/05/05 13:17:15;;;;;;;5.05;1.98;;;23.80;38.70;;;;;;6248871;23;20008;-93